sensor_id;sensor_type;location;lat;lon;timestamp;P1;durP1;ratioP1;P2;durP2;ratioP2
3789;SDS011;1910;49.042;9.028;2024-01-30T00:00:45;3.20;;;2.30;;
3789;SDS011;1910;49.042;9.028;2024-01-30T00:03:11;2.78;;;2.05;;
3789;SDS011;1910;49.042;9.028;2024-01-30T00:05:37;3.77;;;2.67;;
3789;SDS011;1910;49.042;9.028;2024-01-30T00:08:03;10.70;;;3.37;;
3789;SDS011;1910;49.042;9.028;2024-01-30T00:10:29;3.17;;;2.33;;
3789;SDS011;1910;49.042;9.028;2024-01-30T00:12:55;3.70;;;2.83;;
3789;SDS011;1910;49.042;9.028;2024-01-30T00:15:21;4.25;;;2.65;;
3789;SDS011;1910;49.042;9.028;2024-01-30T00:17:47;4.95;;;2.92;;
3789;SDS011;1910;49.042;9.028;2024-01-30T00:20:13;3.53;;;2.58;;
3789;SDS011;1910;49.042;9.028;2024-01-30T00:22:39;6.83;;;2.20;;
3789;SDS011;1910;49.042;9.028;2024-01-30T00:25:05;3.90;;;3.40;;
3789;SDS011;1910;49.042;9.028;2024-01-30T00:27:31;7.97;;;4.22;;
3789;SDS011;1910;49.042;9.028;2024-01-30T00:29:57;9.37;;;4.67;;
3789;SDS011;1910;49.042;9.028;2024-01-30T00:32:23;6.63;;;4.23;;
3789;SDS011;1910;49.042;9.028;2024-01-30T00:34:49;6.73;;;2.10;;
3789;SDS011;1910;49.042;9.028;2024-01-30T00:37:15;2.42;;;2.22;;
3789;SDS011;1910;49.042;9.028;2024-01-30T00:39:41;4.78;;;1.98;;
3789;SDS011;1910;49.042;9.028;2024-01-30T00:42:07;3.03;;;2.30;;
3789;SDS011;1910;49.042;9.028;2024-01-30T00:44:34;3.43;;;2.60;;
3789;SDS011;1910;49.042;9.028;2024-01-30T00:47:03;6.72;;;3.92;;
3789;SDS011;1910;49.042;9.028;2024-01-30T00:49:29;2.67;;;2.15;;
3789;SDS011;1910;49.042;9.028;2024-01-30T00:51:55;2.30;;;2.05;;
3789;SDS011;1910;49.042;9.028;2024-01-30T00:54:20;4.00;;;2.67;;
3789;SDS011;1910;49.042;9.028;2024-01-30T00:56:46;8.43;;;5.27;;
3789;SDS011;1910;49.042;9.028;2024-01-30T00:59:12;7.03;;;3.10;;
3789;SDS011;1910;49.042;9.028;2024-01-30T01:01:38;6.57;;;3.43;;
3789;SDS011;1910;49.042;9.028;2024-01-30T01:04:04;4.97;;;3.15;;
3789;SDS011;1910;49.042;9.028;2024-01-30T01:06:29;6.80;;;3.83;;
3789;SDS011;1910;49.042;9.028;2024-01-30T01:08:55;6.63;;;2.70;;
3789;SDS011;1910;49.042;9.028;2024-01-30T01:11:21;3.07;;;2.80;;
3789;SDS011;1910;49.042;9.028;2024-01-30T01:13:47;4.70;;;3.10;;
3789;SDS011;1910;49.042;9.028;2024-01-30T01:16:13;6.65;;;4.50;;
3789;SDS011;1910;49.042;9.028;2024-01-30T01:18:39;5.50;;;2.40;;
3789;SDS011;1910;49.042;9.028;2024-01-30T01:21:05;4.20;;;2.80;;
3789;SDS011;1910;49.042;9.028;2024-01-30T01:23:31;3.10;;;1.57;;
3789;SDS011;1910;49.042;9.028;2024-01-30T01:25:57;3.03;;;1.43;;
3789;SDS011;1910;49.042;9.028;2024-01-30T01:28:24;3.35;;;2.83;;
3789;SDS011;1910;49.042;9.028;2024-01-30T01:30:50;9.17;;;3.17;;
3789;SDS011;1910;49.042;9.028;2024-01-30T01:33:16;9.43;;;3.87;;
3789;SDS011;1910;49.042;9.028;2024-01-30T01:35:42;3.60;;;3.25;;
3789;SDS011;1910;49.042;9.028;2024-01-30T01:38:08;3.80;;;2.30;;
3789;SDS011;1910;49.042;9.028;2024-01-30T01:40:34;2.22;;;2.03;;
3789;SDS011;1910;49.042;9.028;2024-01-30T01:43:02;6.75;;;3.08;;
3789;SDS011;1910;49.042;9.028;2024-01-30T01:45:28;10.60;;;3.65;;
3789;SDS011;1910;49.042;9.028;2024-01-30T01:47:54;3.27;;;2.10;;
3789;SDS011;1910;49.042;9.028;2024-01-30T01:50:21;5.63;;;2.80;;
3789;SDS011;1910;49.042;9.028;2024-01-30T01:52:48;5.57;;;3.58;;
3789;SDS011;1910;49.042;9.028;2024-01-30T01:55:14;5.65;;;2.80;;
3789;SDS011;1910;49.042;9.028;2024-01-30T01:57:42;11.15;;;3.38;;
3789;SDS011;1910;49.042;9.028;2024-01-30T02:00:08;10.70;;;4.13;;
3789;SDS011;1910;49.042;9.028;2024-01-30T02:02:35;5.78;;;3.38;;
3789;SDS011;1910;49.042;9.028;2024-01-30T02:05:01;6.63;;;3.67;;
3789;SDS011;1910;49.042;9.028;2024-01-30T02:07:27;5.77;;;2.37;;
3789;SDS011;1910;49.042;9.028;2024-01-30T02:09:54;10.77;;;3.75;;
3789;SDS011;1910;49.042;9.028;2024-01-30T02:12:19;19.80;;;1.65;;
3789;SDS011;1910;49.042;9.028;2024-01-30T02:14:46;3.37;;;2.77;;
3789;SDS011;1910;49.042;9.028;2024-01-30T02:17:12;5.93;;;2.22;;
3789;SDS011;1910;49.042;9.028;2024-01-30T02:19:38;1.13;;;1.05;;
3789;SDS011;1910;49.042;9.028;2024-01-30T02:22:04;5.22;;;3.50;;
3789;SDS011;1910;49.042;9.028;2024-01-30T02:24:31;1.90;;;1.80;;
3789;SDS011;1910;49.042;9.028;2024-01-30T02:26:57;9.13;;;3.72;;
3789;SDS011;1910;49.042;9.028;2024-01-30T02:29:23;3.45;;;2.78;;
3789;SDS011;1910;49.042;9.028;2024-01-30T02:31:49;12.00;;;4.53;;
3789;SDS011;1910;49.042;9.028;2024-01-30T02:34:15;6.90;;;4.95;;
3789;SDS011;1910;49.042;9.028;2024-01-30T02:36:44;13.00;;;5.50;;
3789;SDS011;1910;49.042;9.028;2024-01-30T02:39:10;14.43;;;6.35;;
3789;SDS011;1910;49.042;9.028;2024-01-30T02:41:36;8.80;;;5.00;;
3789;SDS011;1910;49.042;9.028;2024-01-30T02:44:02;9.02;;;5.13;;
3789;SDS011;1910;49.042;9.028;2024-01-30T02:46:29;7.43;;;4.50;;
3789;SDS011;1910;49.042;9.028;2024-01-30T02:48:54;8.47;;;5.07;;
3789;SDS011;1910;49.042;9.028;2024-01-30T02:51:20;11.67;;;6.43;;
3789;SDS011;1910;49.042;9.028;2024-01-30T02:53:46;8.07;;;4.78;;
3789;SDS011;1910;49.042;9.028;2024-01-30T02:56:12;8.30;;;4.23;;
3789;SDS011;1910;49.042;9.028;2024-01-30T02:58:39;6.03;;;4.25;;
3789;SDS011;1910;49.042;9.028;2024-01-30T03:01:05;11.05;;;4.97;;
3789;SDS011;1910;49.042;9.028;2024-01-30T03:03:31;7.88;;;4.68;;
3789;SDS011;1910;49.042;9.028;2024-01-30T03:05:57;5.43;;;4.60;;
3789;SDS011;1910;49.042;9.028;2024-01-30T03:08:23;7.50;;;4.90;;
3789;SDS011;1910;49.042;9.028;2024-01-30T03:10:49;6.90;;;4.23;;
3789;SDS011;1910;49.042;9.028;2024-01-30T03:13:15;19.03;;;4.87;;
3789;SDS011;1910;49.042;9.028;2024-01-30T03:15:41;9.33;;;5.47;;
3789;SDS011;1910;49.042;9.028;2024-01-30T03:18:07;10.07;;;3.77;;
3789;SDS011;1910;49.042;9.028;2024-01-30T03:20:33;6.03;;;3.55;;
3789;SDS011;1910;49.042;9.028;2024-01-30T03:22:59;6.50;;;3.77;;
3789;SDS011;1910;49.042;9.028;2024-01-30T03:25:25;4.45;;;3.40;;
3789;SDS011;1910;49.042;9.028;2024-01-30T03:27:51;3.63;;;2.83;;
3789;SDS011;1910;49.042;9.028;2024-01-30T03:30:17;4.70;;;3.50;;
3789;SDS011;1910;49.042;9.028;2024-01-30T03:32:43;7.13;;;4.75;;
3789;SDS011;1910;49.042;9.028;2024-01-30T03:35:09;9.63;;;4.70;;
3789;SDS011;1910;49.042;9.028;2024-01-30T03:37:35;5.35;;;4.15;;
3789;SDS011;1910;49.042;9.028;2024-01-30T03:40:01;12.20;;;5.90;;
3789;SDS011;1910;49.042;9.028;2024-01-30T03:42:28;6.47;;;3.92;;
3789;SDS011;1910;49.042;9.028;2024-01-30T03:44:53;22.10;;;4.63;;
3789;SDS011;1910;49.042;9.028;2024-01-30T03:47:20;10.10;;;4.32;;
3789;SDS011;1910;49.042;9.028;2024-01-30T03:49:46;5.95;;;4.13;;
3789;SDS011;1910;49.042;9.028;2024-01-30T03:52:12;7.13;;;4.17;;
3789;SDS011;1910;49.042;9.028;2024-01-30T03:54:38;14.73;;;3.30;;
3789;SDS011;1910;49.042;9.028;2024-01-30T03:57:04;6.63;;;3.03;;
3789;SDS011;1910;49.042;9.028;2024-01-30T03:59:30;5.25;;;3.35;;
3789;SDS011;1910;49.042;9.028;2024-01-30T04:01:56;10.50;;;3.70;;
3789;SDS011;1910;49.042;9.028;2024-01-30T04:04:22;4.47;;;3.57;;
3789;SDS011;1910;49.042;9.028;2024-01-30T04:06:48;4.10;;;2.63;;
3789;SDS011;1910;49.042;9.028;2024-01-30T04:09:14;3.05;;;2.17;;
3789;SDS011;1910;49.042;9.028;2024-01-30T04:11:40;14.38;;;3.20;;
3789;SDS011;1910;49.042;9.028;2024-01-30T04:14:07;3.58;;;2.92;;
3789;SDS011;1910;49.042;9.028;2024-01-30T04:16:33;4.55;;;2.25;;
3789;SDS011;1910;49.042;9.028;2024-01-30T04:18:59;3.10;;;2.60;;
3789;SDS011;1910;49.042;9.028;2024-01-30T04:21:25;4.20;;;3.43;;
3789;SDS011;1910;49.042;9.028;2024-01-30T04:23:51;12.87;;;4.93;;
3789;SDS011;1910;49.042;9.028;2024-01-30T04:26:17;16.63;;;6.20;;
3789;SDS011;1910;49.042;9.028;2024-01-30T04:28:44;11.32;;;5.40;;
3789;SDS011;1910;49.042;9.028;2024-01-30T04:31:10;9.68;;;5.13;;
3789;SDS011;1910;49.042;9.028;2024-01-30T04:33:36;6.50;;;3.63;;
3789;SDS011;1910;49.042;9.028;2024-01-30T04:36:02;3.95;;;3.38;;
3789;SDS011;1910;49.042;9.028;2024-01-30T04:38:28;8.70;;;3.30;;
3789;SDS011;1910;49.042;9.028;2024-01-30T04:40:54;4.05;;;3.17;;
3789;SDS011;1910;49.042;9.028;2024-01-30T04:43:20;4.97;;;3.30;;
3789;SDS011;1910;49.042;9.028;2024-01-30T04:45:46;3.37;;;3.07;;
3789;SDS011;1910;49.042;9.028;2024-01-30T04:48:12;6.70;;;3.85;;
3789;SDS011;1910;49.042;9.028;2024-01-30T04:50:38;7.13;;;4.67;;
3789;SDS011;1910;49.042;9.028;2024-01-30T04:53:04;3.70;;;3.38;;
3789;SDS011;1910;49.042;9.028;2024-01-30T04:55:30;9.67;;;5.33;;
3789;SDS011;1910;49.042;9.028;2024-01-30T04:57:56;8.40;;;4.10;;
3789;SDS011;1910;49.042;9.028;2024-01-30T05:00:22;6.80;;;3.83;;
3789;SDS011;1910;49.042;9.028;2024-01-30T05:02:48;9.10;;;5.70;;
3789;SDS011;1910;49.042;9.028;2024-01-30T05:05:14;7.80;;;4.37;;
3789;SDS011;1910;49.042;9.028;2024-01-30T05:07:41;6.10;;;3.33;;
3789;SDS011;1910;49.042;9.028;2024-01-30T05:10:07;6.67;;;3.60;;
3789;SDS011;1910;49.042;9.028;2024-01-30T05:12:33;7.88;;;4.45;;
3789;SDS011;1910;49.042;9.028;2024-01-30T05:14:59;10.45;;;3.85;;
3789;SDS011;1910;49.042;9.028;2024-01-30T05:17:25;5.00;;;3.87;;
3789;SDS011;1910;49.042;9.028;2024-01-30T05:19:51;5.07;;;3.67;;
3789;SDS011;1910;49.042;9.028;2024-01-30T05:22:17;5.75;;;3.70;;
3789;SDS011;1910;49.042;9.028;2024-01-30T05:24:43;14.00;;;4.13;;
3789;SDS011;1910;49.042;9.028;2024-01-30T05:27:09;7.73;;;4.33;;
3789;SDS011;1910;49.042;9.028;2024-01-30T05:29:35;7.05;;;4.35;;
3789;SDS011;1910;49.042;9.028;2024-01-30T05:32:02;5.10;;;4.27;;
3789;SDS011;1910;49.042;9.028;2024-01-30T05:34:28;14.77;;;6.75;;
3789;SDS011;1910;49.042;9.028;2024-01-30T05:36:54;6.03;;;4.10;;
3789;SDS011;1910;49.042;9.028;2024-01-30T05:39:19;8.70;;;3.90;;
3789;SDS011;1910;49.042;9.028;2024-01-30T05:41:45;7.90;;;4.60;;
3789;SDS011;1910;49.042;9.028;2024-01-30T05:44:11;11.37;;;5.97;;
3789;SDS011;1910;49.042;9.028;2024-01-30T05:46:37;10.05;;;6.72;;
3789;SDS011;1910;49.042;9.028;2024-01-30T05:49:03;11.50;;;6.47;;
3789;SDS011;1910;49.042;9.028;2024-01-30T05:51:29;11.23;;;5.15;;
3789;SDS011;1910;49.042;9.028;2024-01-30T05:53:55;7.93;;;5.60;;
3789;SDS011;1910;49.042;9.028;2024-01-30T05:56:21;6.30;;;4.40;;
3789;SDS011;1910;49.042;9.028;2024-01-30T05:58:47;5.05;;;4.22;;
3789;SDS011;1910;49.042;9.028;2024-01-30T06:01:12;8.63;;;4.40;;
3789;SDS011;1910;49.042;9.028;2024-01-30T06:03:38;5.77;;;4.07;;
3789;SDS011;1910;49.042;9.028;2024-01-30T06:06:04;11.40;;;4.60;;
3789;SDS011;1910;49.042;9.028;2024-01-30T06:08:31;12.57;;;4.47;;
3789;SDS011;1910;49.042;9.028;2024-01-30T06:10:57;12.37;;;6.23;;
3789;SDS011;1910;49.042;9.028;2024-01-30T06:13:23;10.30;;;4.93;;
3789;SDS011;1910;49.042;9.028;2024-01-30T06:15:49;9.60;;;5.37;;
3789;SDS011;1910;49.042;9.028;2024-01-30T06:18:15;8.60;;;4.50;;
3789;SDS011;1910;49.042;9.028;2024-01-30T06:20:41;9.47;;;5.17;;
3789;SDS011;1910;49.042;9.028;2024-01-30T06:23:07;9.83;;;4.30;;
3789;SDS011;1910;49.042;9.028;2024-01-30T06:25:32;7.37;;;3.40;;
3789;SDS011;1910;49.042;9.028;2024-01-30T06:27:58;6.27;;;2.67;;
3789;SDS011;1910;49.042;9.028;2024-01-30T06:30:24;3.83;;;3.23;;
3789;SDS011;1910;49.042;9.028;2024-01-30T06:32:50;20.33;;;6.30;;
3789;SDS011;1910;49.042;9.028;2024-01-30T06:35:16;6.57;;;3.90;;
3789;SDS011;1910;49.042;9.028;2024-01-30T06:37:42;6.47;;;4.57;;
3789;SDS011;1910;49.042;9.028;2024-01-30T06:40:08;14.37;;;4.80;;
3789;SDS011;1910;49.042;9.028;2024-01-30T06:42:34;5.50;;;4.07;;
3789;SDS011;1910;49.042;9.028;2024-01-30T06:45:00;7.40;;;4.70;;
3789;SDS011;1910;49.042;9.028;2024-01-30T06:47:26;14.02;;;6.40;;
3789;SDS011;1910;49.042;9.028;2024-01-30T06:49:53;12.63;;;5.47;;
3789;SDS011;1910;49.042;9.028;2024-01-30T06:52:19;14.65;;;6.80;;
3789;SDS011;1910;49.042;9.028;2024-01-30T06:54:45;6.67;;;4.60;;
3789;SDS011;1910;49.042;9.028;2024-01-30T06:57:11;6.90;;;4.17;;
3789;SDS011;1910;49.042;9.028;2024-01-30T06:59:36;15.53;;;5.73;;
3789;SDS011;1910;49.042;9.028;2024-01-30T07:02:08;5.72;;;4.47;;
3789;SDS011;1910;49.042;9.028;2024-01-30T07:04:34;42.47;;;14.95;;
3789;SDS011;1910;49.042;9.028;2024-01-30T07:07:00;78.13;;;27.20;;
3789;SDS011;1910;49.042;9.028;2024-01-30T07:09:25;34.30;;;15.47;;
3789;SDS011;1910;49.042;9.028;2024-01-30T07:11:51;25.07;;;12.20;;
3789;SDS011;1910;49.042;9.028;2024-01-30T07:14:20;8.25;;;5.85;;
3789;SDS011;1910;49.042;9.028;2024-01-30T07:16:46;9.43;;;5.20;;
3789;SDS011;1910;49.042;9.028;2024-01-30T07:19:11;6.90;;;4.53;;
3789;SDS011;1910;49.042;9.028;2024-01-30T07:21:36;8.23;;;5.50;;
3789;SDS011;1910;49.042;9.028;2024-01-30T07:24:03;11.88;;;5.72;;
3789;SDS011;1910;49.042;9.028;2024-01-30T07:26:31;7.80;;;5.40;;
3789;SDS011;1910;49.042;9.028;2024-01-30T07:28:56;11.88;;;7.25;;
3789;SDS011;1910;49.042;9.028;2024-01-30T07:31:22;10.87;;;5.43;;
3789;SDS011;1910;49.042;9.028;2024-01-30T07:33:49;12.30;;;6.70;;
3789;SDS011;1910;49.042;9.028;2024-01-30T07:36:14;17.73;;;6.88;;
3789;SDS011;1910;49.042;9.028;2024-01-30T07:38:40;7.30;;;4.47;;
3789;SDS011;1910;49.042;9.028;2024-01-30T07:41:06;13.93;;;5.80;;
3789;SDS011;1910;49.042;9.028;2024-01-30T07:43:31;9.83;;;6.70;;
3789;SDS011;1910;49.042;9.028;2024-01-30T07:45:58;15.25;;;6.88;;
3789;SDS011;1910;49.042;9.028;2024-01-30T07:48:25;8.48;;;5.50;;
3789;SDS011;1910;49.042;9.028;2024-01-30T07:50:51;13.53;;;7.80;;
3789;SDS011;1910;49.042;9.028;2024-01-30T07:53:18;11.45;;;5.25;;
3789;SDS011;1910;49.042;9.028;2024-01-30T07:55:43;12.33;;;6.93;;
3789;SDS011;1910;49.042;9.028;2024-01-30T07:58:11;20.33;;;9.57;;
3789;SDS011;1910;49.042;9.028;2024-01-30T08:00:37;6.53;;;3.70;;
3789;SDS011;1910;49.042;9.028;2024-01-30T08:03:06;8.63;;;3.47;;
3789;SDS011;1910;49.042;9.028;2024-01-30T08:05:31;16.27;;;8.10;;
3789;SDS011;1910;49.042;9.028;2024-01-30T08:07:57;17.40;;;8.37;;
3789;SDS011;1910;49.042;9.028;2024-01-30T08:10:22;24.77;;;6.00;;
3789;SDS011;1910;49.042;9.028;2024-01-30T08:12:48;10.10;;;6.60;;
3789;SDS011;1910;49.042;9.028;2024-01-30T08:15:14;15.80;;;5.90;;
3789;SDS011;1910;49.042;9.028;2024-01-30T08:17:39;20.90;;;7.03;;
3789;SDS011;1910;49.042;9.028;2024-01-30T08:20:05;10.70;;;5.60;;
3789;SDS011;1910;49.042;9.028;2024-01-30T08:22:33;9.30;;;4.63;;
3789;SDS011;1910;49.042;9.028;2024-01-30T08:24:58;5.33;;;4.80;;
3789;SDS011;1910;49.042;9.028;2024-01-30T08:27:24;9.43;;;5.40;;
3789;SDS011;1910;49.042;9.028;2024-01-30T08:29:50;10.70;;;5.83;;
3789;SDS011;1910;49.042;9.028;2024-01-30T08:32:19;9.50;;;5.53;;
3789;SDS011;1910;49.042;9.028;2024-01-30T08:34:44;24.48;;;7.65;;
3789;SDS011;1910;49.042;9.028;2024-01-30T08:37:10;9.07;;;6.23;;
3789;SDS011;1910;49.042;9.028;2024-01-30T08:39:37;17.17;;;4.27;;
3789;SDS011;1910;49.042;9.028;2024-01-30T08:42:02;12.77;;;5.72;;
3789;SDS011;1910;49.042;9.028;2024-01-30T08:44:28;9.23;;;5.20;;
3789;SDS011;1910;49.042;9.028;2024-01-30T08:46:54;10.30;;;6.57;;
3789;SDS011;1910;49.042;9.028;2024-01-30T08:49:19;8.33;;;6.00;;
3789;SDS011;1910;49.042;9.028;2024-01-30T08:51:48;11.20;;;6.25;;
3789;SDS011;1910;49.042;9.028;2024-01-30T08:54:15;10.30;;;5.68;;
3789;SDS011;1910;49.042;9.028;2024-01-30T08:56:41;13.33;;;6.73;;
3789;SDS011;1910;49.042;9.028;2024-01-30T08:59:07;8.30;;;6.70;;
3789;SDS011;1910;49.042;9.028;2024-01-30T09:01:32;7.57;;;6.07;;
3789;SDS011;1910;49.042;9.028;2024-01-30T09:03:58;12.83;;;5.20;;
3789;SDS011;1910;49.042;9.028;2024-01-30T09:06:24;13.67;;;6.20;;
3789;SDS011;1910;49.042;9.028;2024-01-30T09:08:52;7.97;;;4.90;;
3789;SDS011;1910;49.042;9.028;2024-01-30T09:11:19;10.97;;;6.57;;
3789;SDS011;1910;49.042;9.028;2024-01-30T09:13:44;17.13;;;5.50;;
3789;SDS011;1910;49.042;9.028;2024-01-30T09:16:10;8.70;;;5.23;;
3789;SDS011;1910;49.042;9.028;2024-01-30T09:18:36;5.80;;;3.70;;
3789;SDS011;1910;49.042;9.028;2024-01-30T09:21:02;7.70;;;5.30;;
3789;SDS011;1910;49.042;9.028;2024-01-30T09:23:28;8.77;;;5.60;;
3789;SDS011;1910;49.042;9.028;2024-01-30T09:25:54;8.77;;;5.47;;
3789;SDS011;1910;49.042;9.028;2024-01-30T09:28:20;16.77;;;6.57;;
3789;SDS011;1910;49.042;9.028;2024-01-30T09:30:46;8.07;;;5.93;;
3789;SDS011;1910;49.042;9.028;2024-01-30T09:33:12;12.30;;;5.47;;
3789;SDS011;1910;49.042;9.028;2024-01-30T09:35:38;6.50;;;4.83;;
3789;SDS011;1910;49.042;9.028;2024-01-30T09:38:03;13.73;;;5.73;;
3789;SDS011;1910;49.042;9.028;2024-01-30T09:40:29;5.07;;;4.57;;
3789;SDS011;1910;49.042;9.028;2024-01-30T09:42:55;6.83;;;4.80;;
3789;SDS011;1910;49.042;9.028;2024-01-30T09:45:25;5.40;;;4.80;;
3789;SDS011;1910;49.042;9.028;2024-01-30T09:47:54;8.85;;;5.50;;
3789;SDS011;1910;49.042;9.028;2024-01-30T09:50:27;11.00;;;4.72;;
3789;SDS011;1910;49.042;9.028;2024-01-30T09:53:02;7.03;;;5.32;;
3789;SDS011;1910;49.042;9.028;2024-01-30T09:55:29;6.70;;;4.55;;
3789;SDS011;1910;49.042;9.028;2024-01-30T09:57:55;10.77;;;5.40;;
3789;SDS011;1910;49.042;9.028;2024-01-30T10:00:21;9.47;;;5.67;;
3789;SDS011;1910;49.042;9.028;2024-01-30T10:02:52;4.82;;;3.97;;
3789;SDS011;1910;49.042;9.028;2024-01-30T10:05:18;10.38;;;5.50;;
3789;SDS011;1910;49.042;9.028;2024-01-30T10:07:54;9.98;;;5.05;;
3789;SDS011;1910;49.042;9.028;2024-01-30T10:10:22;8.77;;;4.20;;
3789;SDS011;1910;49.042;9.028;2024-01-30T10:12:48;9.80;;;5.90;;
3789;SDS011;1910;49.042;9.028;2024-01-30T10:15:14;7.88;;;6.20;;
3789;SDS011;1910;49.042;9.028;2024-01-30T10:17:40;8.43;;;5.50;;
3789;SDS011;1910;49.042;9.028;2024-01-30T10:20:06;11.43;;;6.10;;
3789;SDS011;1910;49.042;9.028;2024-01-30T10:22:35;12.85;;;5.15;;
3789;SDS011;1910;49.042;9.028;2024-01-30T10:25:01;7.77;;;5.70;;
3789;SDS011;1910;49.042;9.028;2024-01-30T10:27:27;10.90;;;5.93;;
3789;SDS011;1910;49.042;9.028;2024-01-30T10:29:54;10.52;;;5.30;;
3789;SDS011;1910;49.042;9.028;2024-01-30T10:32:21;8.13;;;4.45;;
3789;SDS011;1910;49.042;9.028;2024-01-30T10:34:47;12.70;;;5.80;;
3789;SDS011;1910;49.042;9.028;2024-01-30T10:37:13;8.02;;;5.28;;
3789;SDS011;1910;49.042;9.028;2024-01-30T10:39:42;9.63;;;5.65;;
3789;SDS011;1910;49.042;9.028;2024-01-30T10:42:12;16.67;;;6.80;;
3789;SDS011;1910;49.042;9.028;2024-01-30T10:47:34;5.80;;;4.90;;
3789;SDS011;1910;49.042;9.028;2024-01-30T10:50:01;8.38;;;4.93;;
3789;SDS011;1910;49.042;9.028;2024-01-30T10:52:28;10.68;;;5.50;;
3789;SDS011;1910;49.042;9.028;2024-01-30T10:54:55;9.52;;;5.75;;
3789;SDS011;1910;49.042;9.028;2024-01-30T10:57:22;6.75;;;6.07;;
3789;SDS011;1910;49.042;9.028;2024-01-30T10:59:49;8.90;;;6.00;;
3789;SDS011;1910;49.042;9.028;2024-01-30T11:02:15;12.00;;;5.75;;
3789;SDS011;1910;49.042;9.028;2024-01-30T11:04:41;12.10;;;6.80;;
3789;SDS011;1910;49.042;9.028;2024-01-30T11:07:14;10.37;;;6.30;;
3789;SDS011;1910;49.042;9.028;2024-01-30T11:09:49;11.77;;;7.90;;
3789;SDS011;1910;49.042;9.028;2024-01-30T11:12:16;14.52;;;6.28;;
3789;SDS011;1910;49.042;9.028;2024-01-30T11:14:42;11.73;;;4.78;;
3789;SDS011;1910;49.042;9.028;2024-01-30T11:17:09;8.30;;;5.90;;
3789;SDS011;1910;49.042;9.028;2024-01-30T11:19:37;9.10;;;5.30;;
3789;SDS011;1910;49.042;9.028;2024-01-30T11:22:03;12.57;;;6.17;;
3789;SDS011;1910;49.042;9.028;2024-01-30T11:24:30;11.30;;;6.32;;
3789;SDS011;1910;49.042;9.028;2024-01-30T11:26:58;10.30;;;6.20;;
3789;SDS011;1910;49.042;9.028;2024-01-30T11:29:25;10.18;;;6.70;;
3789;SDS011;1910;49.042;9.028;2024-01-30T11:31:54;9.15;;;6.45;;
3789;SDS011;1910;49.042;9.028;2024-01-30T11:34:22;15.23;;;7.32;;
3789;SDS011;1910;49.042;9.028;2024-01-30T11:36:51;6.32;;;4.80;;
3789;SDS011;1910;49.042;9.028;2024-01-30T11:39:24;8.73;;;5.93;;
3789;SDS011;1910;49.042;9.028;2024-01-30T11:41:51;8.57;;;6.13;;
3789;SDS011;1910;49.042;9.028;2024-01-30T11:44:18;11.48;;;4.55;;
3789;SDS011;1910;49.042;9.028;2024-01-30T11:46:45;8.13;;;6.63;;
3789;SDS011;1910;49.042;9.028;2024-01-30T11:49:11;14.15;;;6.93;;
3789;SDS011;1910;49.042;9.028;2024-01-30T11:51:37;8.43;;;6.57;;
3789;SDS011;1910;49.042;9.028;2024-01-30T11:54:03;10.82;;;5.18;;
3789;SDS011;1910;49.042;9.028;2024-01-30T11:56:29;13.48;;;6.20;;
3789;SDS011;1910;49.042;9.028;2024-01-30T11:58:54;11.40;;;6.53;;
3789;SDS011;1910;49.042;9.028;2024-01-30T12:01:20;12.90;;;7.77;;
3789;SDS011;1910;49.042;9.028;2024-01-30T12:03:49;14.90;;;5.33;;
3789;SDS011;1910;49.042;9.028;2024-01-30T12:06:15;13.48;;;6.30;;
3789;SDS011;1910;49.042;9.028;2024-01-30T12:08:41;7.17;;;5.93;;
3789;SDS011;1910;49.042;9.028;2024-01-30T12:11:07;11.85;;;6.50;;
3789;SDS011;1910;49.042;9.028;2024-01-30T12:13:33;11.20;;;6.60;;
3789;SDS011;1910;49.042;9.028;2024-01-30T12:16:02;9.38;;;6.90;;
3789;SDS011;1910;49.042;9.028;2024-01-30T12:18:28;11.60;;;6.85;;
3789;SDS011;1910;49.042;9.028;2024-01-30T12:20:57;10.03;;;6.40;;
3789;SDS011;1910;49.042;9.028;2024-01-30T12:23:29;7.43;;;4.88;;
3789;SDS011;1910;49.042;9.028;2024-01-30T12:25:55;7.47;;;6.20;;
3789;SDS011;1910;49.042;9.028;2024-01-30T12:28:21;13.00;;;5.80;;
3789;SDS011;1910;49.042;9.028;2024-01-30T12:30:47;8.87;;;6.53;;
3789;SDS011;1910;49.042;9.028;2024-01-30T12:33:16;9.40;;;5.60;;
3789;SDS011;1910;49.042;9.028;2024-01-30T12:35:46;7.50;;;5.93;;
3789;SDS011;1910;49.042;9.028;2024-01-30T12:38:13;14.95;;;6.32;;
3789;SDS011;1910;49.042;9.028;2024-01-30T12:40:39;15.20;;;7.13;;
3789;SDS011;1910;49.042;9.028;2024-01-30T12:43:05;14.80;;;7.20;;
3789;SDS011;1910;49.042;9.028;2024-01-30T12:45:31;11.15;;;5.95;;
3789;SDS011;1910;49.042;9.028;2024-01-30T12:47:57;7.07;;;5.97;;
3789;SDS011;1910;49.042;9.028;2024-01-30T12:50:23;6.65;;;5.60;;
3789;SDS011;1910;49.042;9.028;2024-01-30T12:52:49;11.50;;;6.88;;
3789;SDS011;1910;49.042;9.028;2024-01-30T12:55:15;9.57;;;6.30;;
3789;SDS011;1910;49.042;9.028;2024-01-30T12:57:41;10.68;;;4.93;;
3789;SDS011;1910;49.042;9.028;2024-01-30T13:00:08;11.73;;;7.05;;
3789;SDS011;1910;49.042;9.028;2024-01-30T13:02:34;10.35;;;6.25;;
3789;SDS011;1910;49.042;9.028;2024-01-30T13:05:05;10.63;;;6.05;;
3789;SDS011;1910;49.042;9.028;2024-01-30T13:07:30;10.60;;;6.50;;
3789;SDS011;1910;49.042;9.028;2024-01-30T13:09:57;8.77;;;5.80;;
3789;SDS011;1910;49.042;9.028;2024-01-30T13:12:28;9.18;;;6.85;;
3789;SDS011;1910;49.042;9.028;2024-01-30T13:14:54;13.57;;;7.40;;
3789;SDS011;1910;49.042;9.028;2024-01-30T13:17:20;9.93;;;6.97;;
3789;SDS011;1910;49.042;9.028;2024-01-30T13:19:46;12.40;;;6.80;;
3789;SDS011;1910;49.042;9.028;2024-01-30T13:22:15;15.20;;;7.93;;
3789;SDS011;1910;49.042;9.028;2024-01-30T13:24:40;11.43;;;7.10;;
3789;SDS011;1910;49.042;9.028;2024-01-30T13:27:07;10.17;;;5.73;;
3789;SDS011;1910;49.042;9.028;2024-01-30T13:29:33;11.30;;;7.27;;
3789;SDS011;1910;49.042;9.028;2024-01-30T13:31:59;9.77;;;6.60;;
3789;SDS011;1910;49.042;9.028;2024-01-30T13:34:25;10.18;;;5.82;;
3789;SDS011;1910;49.042;9.028;2024-01-30T13:36:51;14.33;;;7.27;;
3789;SDS011;1910;49.042;9.028;2024-01-30T13:39:17;6.93;;;6.05;;
3789;SDS011;1910;49.042;9.028;2024-01-30T13:41:44;14.65;;;6.93;;
3789;SDS011;1910;49.042;9.028;2024-01-30T13:44:10;9.80;;;4.90;;
3789;SDS011;1910;49.042;9.028;2024-01-30T13:46:36;12.00;;;5.80;;
3789;SDS011;1910;49.042;9.028;2024-01-30T13:49:02;12.13;;;5.15;;
3789;SDS011;1910;49.042;9.028;2024-01-30T13:51:28;15.97;;;5.50;;
3789;SDS011;1910;49.042;9.028;2024-01-30T13:53:54;8.83;;;6.63;;
3789;SDS011;1910;49.042;9.028;2024-01-30T13:56:20;9.00;;;5.57;;
3789;SDS011;1910;49.042;9.028;2024-01-30T13:58:48;9.88;;;5.45;;
3789;SDS011;1910;49.042;9.028;2024-01-30T14:01:14;8.88;;;5.43;;
3789;SDS011;1910;49.042;9.028;2024-01-30T14:03:40;7.60;;;4.70;;
3789;SDS011;1910;49.042;9.028;2024-01-30T14:06:06;12.75;;;5.63;;
3789;SDS011;1910;49.042;9.028;2024-01-30T14:08:32;8.63;;;5.50;;
3789;SDS011;1910;49.042;9.028;2024-01-30T14:10:58;12.80;;;6.17;;
3789;SDS011;1910;49.042;9.028;2024-01-30T14:13:24;7.90;;;6.10;;
3789;SDS011;1910;49.042;9.028;2024-01-30T14:15:51;10.00;;;6.47;;
3789;SDS011;1910;49.042;9.028;2024-01-30T14:18:17;11.27;;;6.47;;
3789;SDS011;1910;49.042;9.028;2024-01-30T14:20:43;9.00;;;6.17;;
3789;SDS011;1910;49.042;9.028;2024-01-30T14:23:09;7.33;;;5.00;;
3789;SDS011;1910;49.042;9.028;2024-01-30T14:25:35;8.88;;;6.85;;
3789;SDS011;1910;49.042;9.028;2024-01-30T14:28:01;10.73;;;6.73;;
3789;SDS011;1910;49.042;9.028;2024-01-30T14:30:27;10.07;;;6.00;;
3789;SDS011;1910;49.042;9.028;2024-01-30T14:32:53;9.23;;;5.18;;
3789;SDS011;1910;49.042;9.028;2024-01-30T14:35:19;5.50;;;4.80;;
3789;SDS011;1910;49.042;9.028;2024-01-30T14:37:45;8.75;;;5.18;;
3789;SDS011;1910;49.042;9.028;2024-01-30T14:40:11;17.00;;;6.93;;
3789;SDS011;1910;49.042;9.028;2024-01-30T14:42:37;12.37;;;5.80;;
3789;SDS011;1910;49.042;9.028;2024-01-30T14:45:03;13.45;;;5.65;;
3789;SDS011;1910;49.042;9.028;2024-01-30T14:47:29;12.73;;;6.43;;
3789;SDS011;1910;49.042;9.028;2024-01-30T14:49:56;8.77;;;6.80;;
3789;SDS011;1910;49.042;9.028;2024-01-30T14:52:22;9.10;;;5.07;;
3789;SDS011;1910;49.042;9.028;2024-01-30T14:54:48;13.40;;;8.18;;
3789;SDS011;1910;49.042;9.028;2024-01-30T14:57:14;9.60;;;5.60;;
3789;SDS011;1910;49.042;9.028;2024-01-30T14:59:40;9.50;;;6.97;;
3789;SDS011;1910;49.042;9.028;2024-01-30T15:02:06;9.07;;;6.60;;
3789;SDS011;1910;49.042;9.028;2024-01-30T15:04:32;18.13;;;8.93;;
3789;SDS011;1910;49.042;9.028;2024-01-30T15:06:58;11.77;;;7.15;;